sensor_id;sensor_type;location;lat;lon;timestamp;pressure;altitude;pressure_sealevel;temperature;humidity
43420;BME280;29017;51.514;-0.178;2023-05-20T00:01:48;102312.94;;;14.00;66.78
43420;BME280;29017;51.514;-0.178;2023-05-20T00:04:15;102309.16;;;13.93;66.77
43420;BME280;29017;51.514;-0.178;2023-05-20T00:06:42;102303.03;;;13.83;67.11
43420;BME280;29017;51.514;-0.178;2023-05-20T00:09:09;102301.06;;;13.75;67.39
43420;BME280;29017;51.514;-0.178;2023-05-20T00:11:36;102290.63;;;13.74;67.61
43420;BME280;29017;51.514;-0.178;2023-05-20T00:14:05;102304.69;;;13.74;69.72
43420;BME280;29017;51.514;-0.178;2023-05-20T00:16:32;102304.13;;;13.70;69.29
43420;BME280;29017;51.514;-0.178;2023-05-20T00:18:59;102301.50;;;13.70;68.61
43420;BME280;29017;51.514;-0.178;2023-05-20T00:21:26;102294.78;;;13.66;68.75
43420;BME280;29017;51.514;-0.178;2023-05-20T00:23:54;102290.72;;;13.62;69.10
43420;BME280;29017;51.514;-0.178;2023-05-20T00:26:21;102296.31;;;13.59;68.93
43420;BME280;29017;51.514;-0.178;2023-05-20T00:28:48;102290.47;;;13.56;69.40
43420;BME280;29017;51.514;-0.178;2023-05-20T00:31:15;102289.88;;;13.52;69.31
43420;BME280;29017;51.514;-0.178;2023-05-20T00:33:42;102295.59;;;13.57;69.10
43420;BME280;29017;51.514;-0.178;2023-05-20T00:36:09;102291.03;;;13.59;69.33
43420;BME280;29017;51.514;-0.178;2023-05-20T00:38:36;102291.25;;;13.47;69.45
43420;BME280;29017;51.514;-0.178;2023-05-20T00:41:03;102284.00;;;13.39;69.34
43420;BME280;29017;51.514;-0.178;2023-05-20T00:43:30;102296.69;;;13.36;70.63
43420;BME280;29017;51.514;-0.178;2023-05-20T00:45:57;102283.72;;;13.33;70.70
43420;BME280;29017;51.514;-0.178;2023-05-20T00:48:24;102292.88;;;13.28;70.28
43420;BME280;29017;51.514;-0.178;2023-05-20T00:50:52;102290.53;;;13.25;71.12
43420;BME280;29017;51.514;-0.178;2023-05-20T00:53:19;102292.03;;;13.28;70.92
43420;BME280;29017;51.514;-0.178;2023-05-20T00:55:47;102283.03;;;13.31;70.74
43420;BME280;29017;51.514;-0.178;2023-05-20T00:58:14;102289.00;;;13.33;71.44
43420;BME280;29017;51.514;-0.178;2023-05-20T01:00:41;102284.81;;;13.30;71.23
43420;BME280;29017;51.514;-0.178;2023-05-20T01:03:08;102286.75;;;13.28;71.30
43420;BME280;29017;51.514;-0.178;2023-05-20T01:05:35;102281.03;;;13.23;71.32
43420;BME280;29017;51.514;-0.178;2023-05-20T01:08:05;102279.78;;;13.27;71.88
43420;BME280;29017;51.514;-0.178;2023-05-20T01:10:35;102281.88;;;13.23;71.31
43420;BME280;29017;51.514;-0.178;2023-05-20T01:13:08;102278.66;;;13.20;71.97
43420;BME280;29017;51.514;-0.178;2023-05-20T01:15:38;102280.88;;;13.15;72.20
43420;BME280;29017;51.514;-0.178;2023-05-20T01:18:07;102270.44;;;13.13;73.47
43420;BME280;29017;51.514;-0.178;2023-05-20T01:20:36;102275.25;;;13.08;72.55
43420;BME280;29017;51.514;-0.178;2023-05-20T01:23:05;102274.69;;;13.05;72.67
43420;BME280;29017;51.514;-0.178;2023-05-20T01:25:32;102268.97;;;13.00;72.66
43420;BME280;29017;51.514;-0.178;2023-05-20T01:27:59;102266.13;;;12.92;73.28
43420;BME280;29017;51.514;-0.178;2023-05-20T01:30:41;102266.41;;;12.89;73.24
43420;BME280;29017;51.514;-0.178;2023-05-20T01:33:11;102263.88;;;12.87;73.42
43420;BME280;29017;51.514;-0.178;2023-05-20T01:35:40;102264.41;;;12.81;74.04
43420;BME280;29017;51.514;-0.178;2023-05-20T01:38:07;102254.63;;;12.72;74.04
43420;BME280;29017;51.514;-0.178;2023-05-20T01:40:35;102247.00;;;12.69;74.49
43420;BME280;29017;51.514;-0.178;2023-05-20T01:43:02;102245.31;;;12.68;74.94
43420;BME280;29017;51.514;-0.178;2023-05-20T01:45:30;102244.34;;;12.69;74.72
43420;BME280;29017;51.514;-0.178;2023-05-20T01:47:57;102237.78;;;12.63;75.38
43420;BME280;29017;51.514;-0.178;2023-05-20T01:50:24;102235.16;;;12.63;75.26
43420;BME280;29017;51.514;-0.178;2023-05-20T01:52:52;102238.31;;;12.57;75.61
43420;BME280;29017;51.514;-0.178;2023-05-20T01:55:19;102242.41;;;12.50;76.16
43420;BME280;29017;51.514;-0.178;2023-05-20T01:57:46;102242.81;;;12.46;76.20
43420;BME280;29017;51.514;-0.178;2023-05-20T02:00:13;102242.25;;;12.42;76.85
43420;BME280;29017;51.514;-0.178;2023-05-20T02:02:40;102238.88;;;12.40;76.64
43420;BME280;29017;51.514;-0.178;2023-05-20T02:05:08;102240.13;;;12.36;77.64
43420;BME280;29017;51.514;-0.178;2023-05-20T02:07:35;102239.16;;;12.37;77.17
43420;BME280;29017;51.514;-0.178;2023-05-20T02:10:02;102244.56;;;12.35;77.78
43420;BME280;29017;51.514;-0.178;2023-05-20T02:12:29;102247.59;;;12.31;77.89
43420;BME280;29017;51.514;-0.178;2023-05-20T02:14:56;102241.47;;;12.30;77.68
43420;BME280;29017;51.514;-0.178;2023-05-20T02:17:23;102244.38;;;12.27;78.16
43420;BME280;29017;51.514;-0.178;2023-05-20T02:19:50;102241.63;;;12.29;78.04
43420;BME280;29017;51.514;-0.178;2023-05-20T02:22:18;102241.16;;;12.24;78.02
43420;BME280;29017;51.514;-0.178;2023-05-20T02:24:45;102238.88;;;12.19;78.43
43420;BME280;29017;51.514;-0.178;2023-05-20T02:27:12;102231.50;;;12.13;78.87
43420;BME280;29017;51.514;-0.178;2023-05-20T02:29:39;102227.06;;;12.14;78.92
43420;BME280;29017;51.514;-0.178;2023-05-20T02:32:06;102224.66;;;12.11;79.28
43420;BME280;29017;51.514;-0.178;2023-05-20T02:34:33;102223.13;;;12.08;79.40
43420;BME280;29017;51.514;-0.178;2023-05-20T02:37:00;102225.06;;;12.06;79.99
43420;BME280;29017;51.514;-0.178;2023-05-20T02:39:27;102224.59;;;12.01;80.26
43420;BME280;29017;51.514;-0.178;2023-05-20T02:41:54;102225.81;;;11.97;80.63
43420;BME280;29017;51.514;-0.178;2023-05-20T02:44:21;102222.34;;;11.96;81.32
43420;BME280;29017;51.514;-0.178;2023-05-20T02:46:49;102223.75;;;12.00;81.26
43420;BME280;29017;51.514;-0.178;2023-05-20T02:49:16;102231.78;;;11.99;81.48
43420;BME280;29017;51.514;-0.178;2023-05-20T02:51:43;102229.03;;;12.00;81.32
43420;BME280;29017;51.514;-0.178;2023-05-20T02:54:10;102213.97;;;11.91;81.30
43420;BME280;29017;51.514;-0.178;2023-05-20T02:56:37;102221.78;;;11.93;81.97
43420;BME280;29017;51.514;-0.178;2023-05-20T02:59:04;102221.09;;;11.80;82.42
43420;BME280;29017;51.514;-0.178;2023-05-20T03:01:32;102225.53;;;11.79;82.50
43420;BME280;29017;51.514;-0.178;2023-05-20T03:04:02;102224.09;;;11.75;83.26
43420;BME280;29017;51.514;-0.178;2023-05-20T03:06:29;102220.41;;;11.78;84.50
43420;BME280;29017;51.514;-0.178;2023-05-20T03:08:57;102224.84;;;11.77;83.63
43420;BME280;29017;51.514;-0.178;2023-05-20T03:11:25;102225.22;;;11.73;83.75
43420;BME280;29017;51.514;-0.178;2023-05-20T03:13:52;102228.06;;;11.70;83.78
43420;BME280;29017;51.514;-0.178;2023-05-20T03:16:19;102228.34;;;11.55;84.03
43420;BME280;29017;51.514;-0.178;2023-05-20T03:18:46;102225.97;;;11.52;84.21
43420;BME280;29017;51.514;-0.178;2023-05-20T03:21:14;102235.44;;;11.44;85.01
43420;BME280;29017;51.514;-0.178;2023-05-20T03:23:41;102232.34;;;11.39;85.05
43420;BME280;29017;51.514;-0.178;2023-05-20T03:26:07;102222.75;;;11.38;84.99
43420;BME280;29017;51.514;-0.178;2023-05-20T03:28:34;102222.06;;;11.36;85.98
43420;BME280;29017;51.514;-0.178;2023-05-20T03:31:01;102221.09;;;11.37;85.75
43420;BME280;29017;51.514;-0.178;2023-05-20T03:33:29;102218.47;;;11.37;85.75
43420;BME280;29017;51.514;-0.178;2023-05-20T03:35:57;102222.06;;;11.36;85.42
43420;BME280;29017;51.514;-0.178;2023-05-20T03:38:24;102221.31;;;11.34;85.54
43420;BME280;29017;51.514;-0.178;2023-05-20T03:40:51;102218.22;;;11.29;85.75
43420;BME280;29017;51.514;-0.178;2023-05-20T03:43:18;102223.50;;;11.29;86.03
43420;BME280;29017;51.514;-0.178;2023-05-20T03:45:44;102215.59;;;11.29;86.16
43420;BME280;29017;51.514;-0.178;2023-05-20T03:48:11;102224.31;;;11.29;86.65
43420;BME280;29017;51.514;-0.178;2023-05-20T03:50:38;102217.38;;;11.28;86.75
43420;BME280;29017;51.514;-0.178;2023-05-20T03:53:05;102228.53;;;11.32;86.67
43420;BME280;29017;51.514;-0.178;2023-05-20T03:55:32;102220.00;;;11.28;86.78
43420;BME280;29017;51.514;-0.178;2023-05-20T03:58:00;102222.66;;;11.28;87.09
43420;BME280;29017;51.514;-0.178;2023-05-20T04:00:27;102221.22;;;11.24;87.24
43420;BME280;29017;51.514;-0.178;2023-05-20T04:02:57;102225.44;;;11.27;87.62
43420;BME280;29017;51.514;-0.178;2023-05-20T04:05:24;102222.66;;;11.28;87.61
43420;BME280;29017;51.514;-0.178;2023-05-20T04:07:51;102230.06;;;11.34;87.49
43420;BME280;29017;51.514;-0.178;2023-05-20T04:10:18;102218.31;;;11.38;87.35
43420;BME280;29017;51.514;-0.178;2023-05-20T04:12:46;102215.44;;;11.41;87.25
43420;BME280;29017;51.514;-0.178;2023-05-20T04:15:13;102211.59;;;11.45;86.76
43420;BME280;29017;51.514;-0.178;2023-05-20T04:17:40;102213.13;;;11.48;86.77
43420;BME280;29017;51.514;-0.178;2023-05-20T04:20:08;102211.34;;;11.48;86.70
43420;BME280;29017;51.514;-0.178;2023-05-20T04:22:36;102217.91;;;11.54;87.21
43420;BME280;29017;51.514;-0.178;2023-05-20T04:25:05;102212.53;;;11.55;86.29
43420;BME280;29017;51.514;-0.178;2023-05-20T04:27:32;102214.31;;;11.55;86.58
43420;BME280;29017;51.514;-0.178;2023-05-20T04:29:59;102211.69;;;11.55;86.34
43420;BME280;29017;51.514;-0.178;2023-05-20T04:32:28;102221.97;;;11.58;87.55
43420;BME280;29017;51.514;-0.178;2023-05-20T04:34:55;102226.75;;;11.64;86.54
43420;BME280;29017;51.514;-0.178;2023-05-20T04:37:23;102225.22;;;11.62;86.09
43420;BME280;29017;51.514;-0.178;2023-05-20T04:39:50;102218.84;;;11.64;86.07
43420;BME280;29017;51.514;-0.178;2023-05-20T04:42:18;102220.91;;;11.61;86.17
43420;BME280;29017;51.514;-0.178;2023-05-20T04:44:47;102215.38;;;11.64;87.97
43420;BME280;29017;51.514;-0.178;2023-05-20T04:47:14;102223.50;;;11.72;86.39
43420;BME280;29017;51.514;-0.178;2023-05-20T04:49:41;102215.59;;;11.72;85.73
43420;BME280;29017;51.514;-0.178;2023-05-20T04:52:08;102216.44;;;11.72;85.91
43420;BME280;29017;51.514;-0.178;2023-05-20T04:54:35;102217.38;;;11.71;86.05
43420;BME280;29017;51.514;-0.178;2023-05-20T04:57:02;102216.94;;;11.66;86.12
43420;BME280;29017;51.514;-0.178;2023-05-20T04:59:29;102224.72;;;11.68;86.56
43420;BME280;29017;51.514;-0.178;2023-05-20T05:01:56;102212.22;;;11.70;86.68
43420;BME280;29017;51.514;-0.178;2023-05-20T05:04:23;102218.47;;;11.69;86.61
43420;BME280;29017;51.514;-0.178;2023-05-20T05:06:50;102219.19;;;11.71;86.75
43420;BME280;29017;51.514;-0.178;2023-05-20T05:09:17;102225.06;;;11.74;87.75
43420;BME280;29017;51.514;-0.178;2023-05-20T05:11:44;102216.53;;;11.71;86.42
43420;BME280;29017;51.514;-0.178;2023-05-20T05:14:11;102214.53;;;11.74;87.18
43420;BME280;29017;51.514;-0.178;2023-05-20T05:16:38;102218.59;;;11.78;87.17
43420;BME280;29017;51.514;-0.178;2023-05-20T05:19:05;102220.41;;;11.78;86.57
43420;BME280;29017;51.514;-0.178;2023-05-20T05:21:33;102216.09;;;11.77;86.70
43420;BME280;29017;51.514;-0.178;2023-05-20T05:23:59;102216.09;;;11.77;87.06
43420;BME280;29017;51.514;-0.178;2023-05-20T05:26:26;102219.19;;;11.82;86.68
43420;BME280;29017;51.514;-0.178;2023-05-20T05:28:53;102211.28;;;11.82;86.61
43420;BME280;29017;51.514;-0.178;2023-05-20T05:31:20;102218.34;;;11.81;86.66
43420;BME280;29017;51.514;-0.178;2023-05-20T05:33:47;102209.72;;;11.79;86.54
43420;BME280;29017;51.514;-0.178;2023-05-20T05:36:15;102214.28;;;11.77;87.06
43420;BME280;29017;51.514;-0.178;2023-05-20T05:38:42;102204.97;;;11.73;87.49
43420;BME280;29017;51.514;-0.178;2023-05-20T05:41:10;102213.44;;;11.77;87.46
43420;BME280;29017;51.514;-0.178;2023-05-20T05:43:37;102210.16;;;11.84;86.97
43420;BME280;29017;51.514;-0.178;2023-05-20T05:46:09;102224.78;;;11.88;87.02
43420;BME280;29017;51.514;-0.178;2023-05-20T05:48:36;102209.53;;;11.92;86.98
43420;BME280;29017;51.514;-0.178;2023-05-20T05:51:03;102213.22;;;12.00;86.27
43420;BME280;29017;51.514;-0.178;2023-05-20T05:53:30;102213.09;;;12.02;86.39
43420;BME280;29017;51.514;-0.178;2023-05-20T05:56:06;102212.44;;;12.10;85.49
43420;BME280;29017;51.514;-0.178;2023-05-20T05:58:33;102218.44;;;12.12;86.33
43420;BME280;29017;51.514;-0.178;2023-05-20T06:01:00;102214.84;;;12.13;86.37
43420;BME280;29017;51.514;-0.178;2023-05-20T06:03:27;102219.16;;;12.14;86.28
43420;BME280;29017;51.514;-0.178;2023-05-20T06:05:56;102218.75;;;12.18;85.18
43420;BME280;29017;51.514;-0.178;2023-05-20T06:08:23;102218.88;;;12.17;85.30
43420;BME280;29017;51.514;-0.178;2023-05-20T06:10:49;102227.69;;;12.06;85.78
43420;BME280;29017;51.514;-0.178;2023-05-20T06:13:17;102229.38;;;12.07;85.85
43420;BME280;29017;51.514;-0.178;2023-05-20T06:15:44;102222.41;;;12.06;86.00
43420;BME280;29017;51.514;-0.178;2023-05-20T06:18:12;102221.56;;;12.06;86.76
43420;BME280;29017;51.514;-0.178;2023-05-20T06:20:39;102227.69;;;12.06;86.62
43420;BME280;29017;51.514;-0.178;2023-05-20T06:23:06;102224.34;;;12.04;86.37
43420;BME280;29017;51.514;-0.178;2023-05-20T06:25:33;102230.44;;;12.05;86.84
43420;BME280;29017;51.514;-0.178;2023-05-20T06:28:00;102228.19;;;12.00;86.85
43420;BME280;29017;51.514;-0.178;2023-05-20T06:30:27;102218.09;;;12.05;86.88
43420;BME280;29017;51.514;-0.178;2023-05-20T06:32:54;102221.06;;;12.12;86.24
43420;BME280;29017;51.514;-0.178;2023-05-20T06:35:21;102218.88;;;12.17;86.48
43420;BME280;29017;51.514;-0.178;2023-05-20T06:37:48;102214.44;;;12.17;86.22
43420;BME280;29017;51.514;-0.178;2023-05-20T06:40:15;102212.03;;;12.14;87.14
43420;BME280;29017;51.514;-0.178;2023-05-20T06:42:42;102204.97;;;12.15;86.70
43420;BME280;29017;51.514;-0.178;2023-05-20T06:45:10;102208.84;;;12.11;86.87
43420;BME280;29017;51.514;-0.178;2023-05-20T06:47:37;102201.31;;;12.06;87.39
43420;BME280;29017;51.514;-0.178;2023-05-20T06:50:04;102205.63;;;12.07;87.98
43420;BME280;29017;51.514;-0.178;2023-05-20T06:52:31;102209.09;;;12.08;87.15
43420;BME280;29017;51.514;-0.178;2023-05-20T06:54:58;102201.75;;;12.11;87.27
43420;BME280;29017;51.514;-0.178;2023-05-20T06:57:25;102198.63;;;12.17;86.88
43420;BME280;29017;51.514;-0.178;2023-05-20T06:59:53;102202.94;;;12.18;86.79
43420;BME280;29017;51.514;-0.178;2023-05-20T07:02:20;102197.13;;;12.24;86.82
43420;BME280;29017;51.514;-0.178;2023-05-20T07:04:48;102199.38;;;12.29;86.93
43420;BME280;29017;51.514;-0.178;2023-05-20T07:07:15;102204.53;;;12.30;86.73
43420;BME280;29017;51.514;-0.178;2023-05-20T07:09:42;102200.41;;;12.37;85.90
43420;BME280;29017;51.514;-0.178;2023-05-20T07:12:09;102194.72;;;12.42;86.31
43420;BME280;29017;51.514;-0.178;2023-05-20T07:14:36;102199.88;;;12.43;86.07
43420;BME280;29017;51.514;-0.178;2023-05-20T07:17:04;102192.53;;;12.47;85.78
43420;BME280;29017;51.514;-0.178;2023-05-20T07:19:31;102192.25;;;12.50;86.09
43420;BME280;29017;51.514;-0.178;2023-05-20T07:21:59;102197.03;;;12.56;85.62
43420;BME280;29017;51.514;-0.178;2023-05-20T07:24:26;102192.31;;;12.60;85.54
43420;BME280;29017;51.514;-0.178;2023-05-20T07:26:53;102201.09;;;12.70;85.10
43420;BME280;29017;51.514;-0.178;2023-05-20T07:29:20;102185.84;;;12.73;85.02
43420;BME280;29017;51.514;-0.178;2023-05-20T07:31:47;102193.09;;;12.81;84.88
43420;BME280;29017;51.514;-0.178;2023-05-20T07:34:14;102189.22;;;12.85;84.29
43420;BME280;29017;51.514;-0.178;2023-05-20T07:36:41;102187.28;;;12.87;84.58
43420;BME280;29017;51.514;-0.178;2023-05-20T07:39:09;102191.47;;;12.90;84.92
43420;BME280;29017;51.514;-0.178;2023-05-20T07:41:40;102191.47;;;12.90;84.74
43420;BME280;29017;51.514;-0.178;2023-05-20T07:44:07;102196.56;;;13.12;83.81
43420;BME280;29017;51.514;-0.178;2023-05-20T07:46:37;102195.50;;;13.24;82.15
43420;BME280;29017;51.514;-0.178;2023-05-20T07:49:04;102200.50;;;13.27;81.85
43420;BME280;29017;51.514;-0.178;2023-05-20T07:51:31;102186.84;;;13.32;82.22
43420;BME280;29017;51.514;-0.178;2023-05-20T07:54:02;102183.00;;;13.45;81.91
43420;BME280;29017;51.514;-0.178;2023-05-20T07:56:29;102184.69;;;13.65;80.52
43420;BME280;29017;51.514;-0.178;2023-05-20T07:58:58;102183.09;;;13.92;79.97
43420;BME280;29017;51.514;-0.178;2023-05-20T08:01:26;102188.78;;;14.26;77.87
43420;BME280;29017;51.514;-0.178;2023-05-20T08:03:54;102184.03;;;14.39;76.60
43420;BME280;29017;51.514;-0.178;2023-05-20T08:06:22;102181.78;;;14.44;76.47
43420;BME280;29017;51.514;-0.178;2023-05-20T08:09:01;102168.94;;;14.49;77.15
43420;BME280;29017;51.514;-0.178;2023-05-20T08:11:28;102164.84;;;14.91;74.06
43420;BME280;29017;51.514;-0.178;2023-05-20T08:13:55;102170.19;;;15.09;74.29
43420;BME280;29017;51.514;-0.178;2023-05-20T08:16:23;102161.34;;;15.18;72.99
43420;BME280;29017;51.514;-0.178;2023-05-20T08:18:52;102153.16;;;15.12;73.11
43420;BME280;29017;51.514;-0.178;2023-05-20T08:21:20;102156.97;;;15.27;74.46
43420;BME280;29017;51.514;-0.178;2023-05-20T08:23:48;102161.41;;;15.54;72.84
43420;BME280;29017;51.514;-0.178;2023-05-20T08:26:16;102152.00;;;15.59;72.19
43420;BME280;29017;51.514;-0.178;2023-05-20T08:28:48;102148.25;;;15.70;71.86
43420;BME280;29017;51.514;-0.178;2023-05-20T08:31:15;102154.19;;;15.64;71.85
43420;BME280;29017;51.514;-0.178;2023-05-20T08:33:43;102144.94;;;15.68;71.14
43420;BME280;29017;51.514;-0.178;2023-05-20T08:36:11;102148.72;;;15.65;71.86
43420;BME280;29017;51.514;-0.178;2023-05-20T08:38:38;102137.94;;;15.67;70.91
43420;BME280;29017;51.514;-0.178;2023-05-20T08:41:05;102140.38;;;15.60;70.78
43420;BME280;29017;51.514;-0.178;2023-05-20T08:43:32;102148.50;;;15.59;71.13
43420;BME280;29017;51.514;-0.178;2023-05-20T08:46:05;102143.41;;;15.65;71.33
43420;BME280;29017;51.514;-0.178;2023-05-20T08:48:50;102139.53;;;15.77;70.83
43420;BME280;29017;51.514;-0.178;2023-05-20T08:51:19;102143.66;;;15.98;70.48
43420;BME280;29017;51.514;-0.178;2023-05-20T08:53:49;102140.13;;;16.15;69.73
43420;BME280;29017;51.514;-0.178;2023-05-20T08:56:21;102146.31;;;16.57;67.87
43420;BME280;29017;51.514;-0.178;2023-05-20T08:58:56;102133.00;;;16.75;67.52
43420;BME280;29017;51.514;-0.178;2023-05-20T09:01:24;102136.47;;;16.76;66.79
43420;BME280;29017;51.514;-0.178;2023-05-20T09:03:52;102137.69;;;16.89;66.88
43420;BME280;29017;51.514;-0.178;2023-05-20T09:06:21;102127.44;;;17.19;65.08
43420;BME280;29017;51.514;-0.178;2023-05-20T09:08:52;102116.94;;;17.17;64.51
43420;BME280;29017;51.514;-0.178;2023-05-20T09:11:19;102134.78;;;17.49;63.67
43420;BME280;29017;51.514;-0.178;2023-05-20T09:13:49;102129.31;;;17.50;63.07
43420;BME280;29017;51.514;-0.178;2023-05-20T09:16:16;102126.63;;;17.42;63.25
43420;BME280;29017;51.514;-0.178;2023-05-20T09:18:44;102122.47;;;17.32;63.61
43420;BME280;29017;51.514;-0.178;2023-05-20T09:21:12;102121.13;;;17.20;64.79
43420;BME280;29017;51.514;-0.178;2023-05-20T09:23:39;102110.97;;;17.15;65.26
43420;BME280;29017;51.514;-0.178;2023-05-20T09:26:06;102112.97;;;17.13;65.12
43420;BME280;29017;51.514;-0.178;2023-05-20T09:28:34;102105.66;;;17.15;65.43
43420;BME280;29017;51.514;-0.178;2023-05-20T09:31:04;102111.47;;;17.19;65.52
43420;BME280;29017;51.514;-0.178;2023-05-20T09:33:32;102100.34;;;17.23;66.06
43420;BME280;29017;51.514;-0.178;2023-05-20T09:36:07;102097.50;;;17.33;65.09
43420;BME280;29017;51.514;-0.178;2023-05-20T09:38:36;102101.69;;;17.35;64.71
43420;BME280;29017;51.514;-0.178;2023-05-20T09:41:09;102098.34;;;17.49;64.38
43420;BME280;29017;51.514;-0.178;2023-05-20T09:43:38;102095.88;;;17.56;64.27
43420;BME280;29017;51.514;-0.178;2023-05-20T09:46:07;102095.25;;;17.62;64.09
43420;BME280;29017;51.514;-0.178;2023-05-20T09:48:35;102091.56;;;17.71;64.33
43420;BME280;29017;51.514;-0.178;2023-05-20T09:51:04;102083.88;;;17.84;62.58
43420;BME280;29017;51.514;-0.178;2023-05-20T09:53:32;102085.56;;;17.85;62.64
43420;BME280;29017;51.514;-0.178;2023-05-20T09:56:06;102088.88;;;17.87;62.48
43420;BME280;29017;51.514;-0.178;2023-05-20T09:58:35;102087.88;;;17.88;62.32
43420;BME280;29017;51.514;-0.178;2023-05-20T10:01:03;102076.53;;;17.94;62.11
43420;BME280;29017;51.514;-0.178;2023-05-20T10:03:31;102069.84;;;17.99;62.66
43420;BME280;29017;51.514;-0.178;2023-05-20T10:08:43;102071.16;;;18.11;62.33
43420;BME280;29017;51.514;-0.178;2023-05-20T10:11:28;102057.50;;;18.14;61.71
43420;BME280;29017;51.514;-0.178;2023-05-20T10:14:14;102064.59;;;18.29;60.84
43420;BME280;29017;51.514;-0.178;2023-05-20T10:19:28;102053.03;;;18.53;59.83
43420;BME280;29017;51.514;-0.178;2023-05-20T10:22:01;102062.28;;;18.65;59.26
43420;BME280;29017;51.514;-0.178;2023-05-20T10:24:31;102051.28;;;18.68;56.66
43420;BME280;29017;51.514;-0.178;2023-05-20T10:27:02;102047.59;;;18.69;56.44
43420;BME280;29017;51.514;-0.178;2023-05-20T10:29:41;102057.78;;;18.74;56.60
43420;BME280;29017;51.514;-0.178;2023-05-20T10:32:09;102039.56;;;18.77;57.81
43420;BME280;29017;51.514;-0.178;2023-05-20T10:34:45;102044.19;;;18.84;57.13
43420;BME280;29017;51.514;-0.178;2023-05-20T10:37:23;102053.50;;;18.88;56.41
43420;BME280;29017;51.514;-0.178;2023-05-20T10:40:02;102058.97;;;18.94;56.68
43420;BME280;29017;51.514;-0.178;2023-05-20T10:42:31;102053.34;;;18.89;56.36
43420;BME280;29017;51.514;-0.178;2023-05-20T10:44:58;102046.34;;;18.88;56.27
43420;BME280;29017;51.514;-0.178;2023-05-20T10:47:27;102046.38;;;18.80;56.00
43420;BME280;29017;51.514;-0.178;2023-05-20T10:49:54;102041.94;;;18.72;55.96
43420;BME280;29017;51.514;-0.178;2023-05-20T10:52:23;102040.97;;;18.65;56.71
43420;BME280;29017;51.514;-0.178;2023-05-20T10:54:54;102041.63;;;18.67;57.15
43420;BME280;29017;51.514;-0.178;2023-05-20T10:57:23;102033.78;;;18.74;57.03
43420;BME280;29017;51.514;-0.178;2023-05-20T10:59:50;102032.69;;;18.83;55.97
43420;BME280;29017;51.514;-0.178;2023-05-20T11:02:18;102036.19;;;18.84;55.73
43420;BME280;29017;51.514;-0.178;2023-05-20T11:04:50;102025.75;;;18.74;53.99
43420;BME280;29017;51.514;-0.178;2023-05-20T11:07:27;102026.06;;;18.79;54.65
43420;BME280;29017;51.514;-0.178;2023-05-20T11:09:56;102021.53;;;18.79;54.89
43420;BME280;29017;51.514;-0.178;2023-05-20T11:12:24;102025.41;;;18.77;53.23
43420;BME280;29017;51.514;-0.178;2023-05-20T11:14:52;102022.25;;;18.73;53.43
43420;BME280;29017;51.514;-0.178;2023-05-20T11:17:21;102022.66;;;18.85;54.07
43420;BME280;29017;51.514;-0.178;2023-05-20T11:19:49;102011.41;;;18.98;54.23
43420;BME280;29017;51.514;-0.178;2023-05-20T11:22:16;102015.09;;;19.19;53.26
43420;BME280;29017;51.514;-0.178;2023-05-20T11:24:43;102013.91;;;19.37;53.04
43420;BME280;29017;51.514;-0.178;2023-05-20T11:27:11;102010.19;;;19.46;52.31
43420;BME280;29017;51.514;-0.178;2023-05-20T11:29:38;102019.69;;;19.48;51.43
43420;BME280;29017;51.514;-0.178;2023-05-20T11:32:06;102014.63;;;19.53;50.38
43420;BME280;29017;51.514;-0.178;2023-05-20T11:34:35;102022.88;;;19.44;50.53
43420;BME280;29017;51.514;-0.178;2023-05-20T11:37:07;102018.41;;;19.36;49.85
43420;BME280;29017;51.514;-0.178;2023-05-20T11:39:36;102015.13;;;19.34;51.27
43420;BME280;29017;51.514;-0.178;2023-05-20T11:42:04;102009.69;;;19.42;49.68
43420;BME280;29017;51.514;-0.178;2023-05-20T11:44:32;102003.84;;;19.47;49.94
43420;BME280;29017;51.514;-0.178;2023-05-20T11:47:00;102007.94;;;19.35;49.40
43420;BME280;29017;51.514;-0.178;2023-05-20T11:49:29;101997.88;;;19.22;48.97
43420;BME280;29017;51.514;-0.178;2023-05-20T11:52:07;101995.47;;;19.27;48.04
43420;BME280;29017;51.514;-0.178;2023-05-20T11:54:35;101993.75;;;19.34;47.88
43420;BME280;29017;51.514;-0.178;2023-05-20T11:57:02;101982.69;;;19.45;47.99
43420;BME280;29017;51.514;-0.178;2023-05-20T11:59:32;101983.41;;;19.54;45.82
43420;BME280;29017;51.514;-0.178;2023-05-20T12:02:00;101985.81;;;19.63;46.18
43420;BME280;29017;51.514;-0.178;2023-05-20T12:04:27;101973.47;;;19.77;45.64
43420;BME280;29017;51.514;-0.178;2023-05-20T12:06:55;101982.97;;;19.80;46.48
43420;BME280;29017;51.514;-0.178;2023-05-20T12:09:22;101974.69;;;19.75;46.77
43420;BME280;29017;51.514;-0.178;2023-05-20T12:11:49;101966.66;;;19.75;47.53
43420;BME280;29017;51.514;-0.178;2023-05-20T12:14:16;101971.16;;;19.74;47.00
43420;BME280;29017;51.514;-0.178;2023-05-20T12:16:44;101957.25;;;19.79;47.06
43420;BME280;29017;51.514;-0.178;2023-05-20T12:19:11;101976.69;;;19.87;46.21
43420;BME280;29017;51.514;-0.178;2023-05-20T12:21:38;101957.72;;;19.68;47.08
43420;BME280;29017;51.514;-0.178;2023-05-20T12:24:05;101951.53;;;19.67;47.61
43420;BME280;29017;51.514;-0.178;2023-05-20T12:26:34;101945.56;;;19.65;48.04
43420;BME280;29017;51.514;-0.178;2023-05-20T12:29:01;101947.75;;;19.76;47.66
43420;BME280;29017;51.514;-0.178;2023-05-20T12:31:29;101952.09;;;19.77;47.33
43420;BME280;29017;51.514;-0.178;2023-05-20T12:34:00;101942.78;;;19.73;47.22
43420;BME280;29017;51.514;-0.178;2023-05-20T12:36:27;101947.69;;;19.70;46.61
43420;BME280;29017;51.514;-0.178;2023-05-20T12:38:54;101947.59;;;19.63;47.22
43420;BME280;29017;51.514;-0.178;2023-05-20T12:41:22;101946.38;;;19.51;47.62
43420;BME280;29017;51.514;-0.178;2023-05-20T12:43:49;101950.44;;;19.47;47.22
43420;BME280;29017;51.514;-0.178;2023-05-20T12:46:17;101941.59;;;19.46;47.98
43420;BME280;29017;51.514;-0.178;2023-05-20T12:48:44;101941.13;;;19.57;47.82
43420;BME280;29017;51.514;-0.178;2023-05-20T12:51:11;101944.34;;;19.68;47.09